createdAt,value
2018-12-24T00:02:22.956Z,99.90
2018-12-24T00:04:51.649Z,99.90
2018-12-24T00:07:20.216Z,99.90
2018-12-24T00:09:48.760Z,99.90
2018-12-24T00:12:17.268Z,99.90
2018-12-24T00:14:45.766Z,99.90
2018-12-24T00:17:14.240Z,99.90
2018-12-24T00:19:42.755Z,99.90
2018-12-24T00:22:11.295Z,99.90
2018-12-24T00:24:39.803Z,99.90
2018-12-24T00:27:08.363Z,99.90
2018-12-24T00:29:36.891Z,99.90
2018-12-24T00:32:05.389Z,99.90
2018-12-24T00:34:33.885Z,99.90
2018-12-24T00:37:02.443Z,99.90
2018-12-24T00:39:31.045Z,99.90
2018-12-24T00:41:59.537Z,99.90
2018-12-24T00:44:28.100Z,99.90
2018-12-24T00:46:56.581Z,99.90
2018-12-24T00:49:25.089Z,99.90
2018-12-24T00:51:53.592Z,99.90
2018-12-24T00:54:22.086Z,99.90
2018-12-24T00:56:50.578Z,99.90
2018-12-24T00:59:19.088Z,99.90
2018-12-24T01:01:48.913Z,99.90
2018-12-24T01:04:17.516Z,99.90
2018-12-24T01:06:46.013Z,99.90
2018-12-24T01:09:14.537Z,99.90
2018-12-24T01:11:43.012Z,99.90
2018-12-24T01:14:11.557Z,99.90
2018-12-24T01:16:40.044Z,99.90
2018-12-24T01:19:08.550Z,99.90
2018-12-24T01:21:37.045Z,99.90
2018-12-24T01:24:05.530Z,99.90
2018-12-24T01:26:34.039Z,99.90
2018-12-24T01:29:02.507Z,99.90
2018-12-24T01:31:31.075Z,99.90
2018-12-24T01:33:59.489Z,99.90
2018-12-24T01:36:28.032Z,99.90
2018-12-24T01:38:56.515Z,99.90
2018-12-24T01:41:25.044Z,99.90
2018-12-24T01:43:53.528Z,99.90
2018-12-24T01:46:22.031Z,99.90
2018-12-24T01:48:50.516Z,99.90
2018-12-24T01:51:19.015Z,99.90
2018-12-24T01:53:47.500Z,99.90
2018-12-24T01:56:16.088Z,99.90
2018-12-24T01:58:44.573Z,99.90
2018-12-24T02:01:13.064Z,99.90
2018-12-24T02:03:41.560Z,99.90
2018-12-24T02:06:10.072Z,99.90
2018-12-24T02:08:38.587Z,99.90
2018-12-24T02:11:07.060Z,99.90
2018-12-24T02:13:35.591Z,99.90
2018-12-24T02:16:04.106Z,99.90
2018-12-24T02:18:32.573Z,99.90
2018-12-24T02:21:01.131Z,99.90
2018-12-24T02:23:29.614Z,99.90
2018-12-24T02:25:58.120Z,99.90
2018-12-24T02:28:26.619Z,99.90
2018-12-24T02:30:55.128Z,99.90
2018-12-24T02:33:23.620Z,99.90
2018-12-24T02:35:52.121Z,99.90
2018-12-24T02:38:20.601Z,99.90
2018-12-24T02:40:49.085Z,99.90
2018-12-24T02:43:17.751Z,99.90
2018-12-24T02:45:46.360Z,99.90
2018-12-24T02:48:14.852Z,99.90
2018-12-24T02:50:43.365Z,99.90
2018-12-24T02:53:11.868Z,99.90
2018-12-24T02:55:40.350Z,99.90
2018-12-24T02:58:08.848Z,99.90
2018-12-24T03:00:37.335Z,99.90
2018-12-24T03:03:05.827Z,99.90
2018-12-24T03:05:34.304Z,99.90
2018-12-24T03:08:02.804Z,99.90
2018-12-24T03:10:31.322Z,99.90
2018-12-24T03:13:02.963Z,99.90
2018-12-24T03:15:30.284Z,99.90
2018-12-24T03:17:58.747Z,99.90
2018-12-24T03:20:27.227Z,99.90
2018-12-24T03:22:55.753Z,99.90
2018-12-24T03:25:24.233Z,99.90
2018-12-24T03:27:52.728Z,99.90
2018-12-24T03:30:21.197Z,99.90
2018-12-24T03:32:51.337Z,99.90
2018-12-24T03:35:19.837Z,99.90
2018-12-24T03:37:48.328Z,99.90
2018-12-24T03:40:16.972Z,99.90
2018-12-24T03:42:45.511Z,99.90
2018-12-24T03:45:13.958Z,99.90
2018-12-24T03:47:42.536Z,99.90
2018-12-24T03:50:11.086Z,99.90
2018-12-24T03:52:39.579Z,99.90
2018-12-24T03:55:08.270Z,99.90
2018-12-24T03:57:36.880Z,99.90
2018-12-24T04:00:06.560Z,99.90
2018-12-24T04:02:35.226Z,99.90
2018-12-24T04:05:03.844Z,99.90
2018-12-24T04:07:32.406Z,99.90
2018-12-24T04:10:00.951Z,99.90
2018-12-24T04:12:29.457Z,99.90
2018-12-24T04:14:57.959Z,99.90
2018-12-24T04:17:26.485Z,99.90
2018-12-24T04:19:54.975Z,99.90
2018-12-24T04:22:23.544Z,99.90
2018-12-24T04:24:52.651Z,99.90
2018-12-24T04:27:21.114Z,99.90
2018-12-24T04:29:49.628Z,99.90
2018-12-24T04:32:18.103Z,99.90
2018-12-24T04:34:46.599Z,99.90
2018-12-24T04:37:15.080Z,99.90
2018-12-24T04:39:43.588Z,99.90
2018-12-24T04:42:12.072Z,99.90
2018-12-24T04:44:40.580Z,99.90
2018-12-24T04:47:09.053Z,99.90
2018-12-24T04:49:37.552Z,99.90
2018-12-24T04:52:06.052Z,99.90
2018-12-24T04:54:34.678Z,99.90
2018-12-24T04:57:03.138Z,99.90
2018-12-24T04:59:31.675Z,99.90
2018-12-24T05:02:00.132Z,99.90
2018-12-24T05:04:28.636Z,99.90
2018-12-24T05:06:57.110Z,99.90
2018-12-24T05:09:25.622Z,99.90
2018-12-24T05:11:54.112Z,99.90
2018-12-24T05:14:22.618Z,99.90
2018-12-24T05:16:51.096Z,99.90
2018-12-24T05:19:19.632Z,99.90
2018-12-24T05:21:48.117Z,99.90
2018-12-24T05:24:16.621Z,99.90
2018-12-24T05:26:45.132Z,99.90
2018-12-24T05:29:13.638Z,99.90
2018-12-24T05:31:42.187Z,99.90
2018-12-24T05:34:10.672Z,99.90
2018-12-24T05:36:39.200Z,99.90
2018-12-24T05:39:07.672Z,99.90
2018-12-24T05:41:36.186Z,99.90
2018-12-24T05:44:04.680Z,99.90
2018-12-24T05:46:33.185Z,99.90
2018-12-24T05:49:01.661Z,99.90
2018-12-24T05:51:30.275Z,99.90
2018-12-24T05:53:58.780Z,99.90
2018-12-24T05:56:27.281Z,99.90
2018-12-24T05:58:55.760Z,99.90
2018-12-24T06:01:24.296Z,99.90
2018-12-24T06:03:52.777Z,99.90
2018-12-24T06:06:21.275Z,99.90
2018-12-24T06:08:49.777Z,99.90
2018-12-24T06:11:18.264Z,99.90
2018-12-24T06:13:46.747Z,99.90
2018-12-24T06:16:15.253Z,99.90
2018-12-24T06:18:43.759Z,99.90
2018-12-24T06:21:12.279Z,99.90
2018-12-24T06:23:40.777Z,99.90
2018-12-24T06:26:09.381Z,99.90
2018-12-24T06:28:37.879Z,99.90
2018-12-24T06:31:06.387Z,99.90
2018-12-24T06:33:34.892Z,99.90
2018-12-24T06:36:03.427Z,99.90
2018-12-24T06:38:31.910Z,99.90
2018-12-24T06:41:00.401Z,99.90
2018-12-24T06:43:28.903Z,99.90
2018-12-24T06:45:57.416Z,99.90
2018-12-24T06:48:25.900Z,99.90
2018-12-24T06:50:54.395Z,99.90
2018-12-24T06:53:22.904Z,99.90
2018-12-24T06:55:51.440Z,99.90
2018-12-24T06:58:19.915Z,99.90
2018-12-24T07:00:48.392Z,99.90
2018-12-24T07:03:16.920Z,99.90
2018-12-24T07:05:45.396Z,99.90
2018-12-24T07:08:14.013Z,99.90
2018-12-24T07:10:42.520Z,99.90
2018-12-24T07:13:11.031Z,99.90
2018-12-24T07:15:39.513Z,99.90
2018-12-24T07:18:08.019Z,99.90
2018-12-24T07:20:36.501Z,99.90
2018-12-24T07:23:04.999Z,99.90
2018-12-24T07:25:33.481Z,99.90
2018-12-24T07:28:01.990Z,99.90
2018-12-24T07:30:30.478Z,99.90
2018-12-24T07:32:58.988Z,99.90
2018-12-24T07:35:27.480Z,99.90
2018-12-24T07:37:56.023Z,99.90
2018-12-24T07:40:24.497Z,99.90
2018-12-24T07:42:53.013Z,99.90
2018-12-24T07:45:21.484Z,99.90
2018-12-24T07:47:49.996Z,99.90
2018-12-24T07:50:18.475Z,99.90
2018-12-24T07:52:46.990Z,99.90
2018-12-24T07:55:15.480Z,99.90
2018-12-24T07:57:44.016Z,99.90
2018-12-24T08:00:12.496Z,99.90
2018-12-24T08:02:41.006Z,99.90
2018-12-24T08:05:09.486Z,99.90
2018-12-24T08:07:37.983Z,99.90
2018-12-24T08:10:06.491Z,99.90
2018-12-24T08:12:34.948Z,99.90
2018-12-24T08:15:03.453Z,99.90
2018-12-24T08:17:31.968Z,99.90
2018-12-24T08:20:00.489Z,99.90
2018-12-24T08:22:29.039Z,99.90
2018-12-24T08:24:57.542Z,99.90
2018-12-24T08:27:26.017Z,99.90
2018-12-24T08:29:54.532Z,99.90
2018-12-24T08:32:23.036Z,99.90
2018-12-24T08:34:51.544Z,99.90
2018-12-24T08:37:20.055Z,99.90
2018-12-24T08:39:48.568Z,99.90
2018-12-24T08:42:17.043Z,99.90
2018-12-24T08:44:45.555Z,99.90
2018-12-24T08:47:14.033Z,99.90
2018-12-24T08:49:42.540Z,99.90
2018-12-24T08:52:11.020Z,99.90
2018-12-24T08:54:39.520Z,99.90
2018-12-24T08:57:08.024Z,99.90
2018-12-24T08:59:36.568Z,99.90
2018-12-24T09:02:05.027Z,99.90
2018-12-24T09:04:33.557Z,99.90
2018-12-24T09:07:02.028Z,99.90
2018-12-24T09:09:30.537Z,99.90
2018-12-24T09:11:59.021Z,99.90
2018-12-24T09:14:27.523Z,99.90
2018-12-24T09:16:56.081Z,99.90
2018-12-24T09:19:24.635Z,99.90
2018-12-24T09:21:53.111Z,99.90
2018-12-24T09:24:21.618Z,99.90
2018-12-24T09:26:50.095Z,99.90
2018-12-24T09:29:18.638Z,99.90
2018-12-24T09:31:47.207Z,99.90
2018-12-24T09:34:15.719Z,99.90
2018-12-24T09:36:44.233Z,99.90
2018-12-24T09:39:12.727Z,99.90
2018-12-24T09:41:41.195Z,99.90
2018-12-24T09:44:09.719Z,99.90
2018-12-24T09:46:38.183Z,99.90
2018-12-24T09:49:06.678Z,99.90
2018-12-24T09:51:35.180Z,99.90
2018-12-24T09:54:03.683Z,99.90
2018-12-24T09:56:32.190Z,99.90
2018-12-24T09:59:00.659Z,99.90
2018-12-24T10:01:29.164Z,99.90
2018-12-24T10:04:02.906Z,99.90
2018-12-24T10:06:27.810Z,99.90
2018-12-24T10:08:56.344Z,99.90
2018-12-24T10:11:24.852Z,99.90
2018-12-24T10:13:53.333Z,99.90
2018-12-24T10:16:21.864Z,99.90
2018-12-24T10:18:50.326Z,99.90
2018-12-24T10:21:18.831Z,99.90
2018-12-24T10:23:47.315Z,99.90
2018-12-24T10:26:15.852Z,99.90
2018-12-24T10:28:44.336Z,99.90
2018-12-24T10:31:12.841Z,99.90
2018-12-24T10:33:41.309Z,99.90
2018-12-24T10:36:09.831Z,99.90
2018-12-24T10:38:38.312Z,99.90
2018-12-24T10:41:07.011Z,99.90
2018-12-24T10:43:35.441Z,99.90
2018-12-24T10:46:03.952Z,99.90
2018-12-24T10:48:32.428Z,99.90
2018-12-24T10:51:01.328Z,99.90
2018-12-24T10:53:29.792Z,99.90
2018-12-24T10:55:58.266Z,99.90
2018-12-24T10:58:26.760Z,99.90
2018-12-24T11:00:55.245Z,99.90
2018-12-24T11:03:23.747Z,99.90
2018-12-24T11:05:52.219Z,99.90
2018-12-24T11:08:20.713Z,99.90
2018-12-24T11:10:49.225Z,99.90
2018-12-24T11:13:17.732Z,99.90
2018-12-24T11:15:46.208Z,99.90
2018-12-24T11:18:14.731Z,99.90
2018-12-24T11:20:43.202Z,99.90
2018-12-24T11:23:11.697Z,99.90
2018-12-24T11:25:40.176Z,99.90
2018-12-24T11:28:08.703Z,99.90
2018-12-24T11:30:37.196Z,99.90
2018-12-24T11:33:05.700Z,99.90
2018-12-24T11:35:34.193Z,99.90
2018-12-24T11:38:02.721Z,99.90
2018-12-24T11:40:31.176Z,99.90
2018-12-24T11:42:59.680Z,99.90
2018-12-24T11:45:33.700Z,99.90
2018-12-24T11:47:58.304Z,97.70
2018-12-24T11:50:26.792Z,99.90
2018-12-24T11:52:55.297Z,88.60
2018-12-24T11:55:23.778Z,90.20
2018-12-24T11:57:52.314Z,91.50
2018-12-24T12:00:20.801Z,91.00
2018-12-24T12:02:49.284Z,91.30
2018-12-24T12:05:17.776Z,91.20
2018-12-24T12:07:46.264Z,91.90
2018-12-24T12:10:14.752Z,91.90
2018-12-24T12:12:43.242Z,91.50
2018-12-24T12:15:13.041Z,90.20
2018-12-24T12:17:41.773Z,90.70
2018-12-24T12:20:10.276Z,90.50
2018-12-24T12:22:38.753Z,91.10
2018-12-24T12:25:07.246Z,92.70
2018-12-24T12:27:35.716Z,91.40
2018-12-24T12:30:06.786Z,92.10
2018-12-24T12:32:35.275Z,91.60
2018-12-24T12:35:03.845Z,92.30
2018-12-24T12:37:32.411Z,90.00
2018-12-24T12:40:00.889Z,90.00
2018-12-24T12:42:29.374Z,90.70
2018-12-24T12:44:57.875Z,89.60
2018-12-24T12:47:26.558Z,89.90
2018-12-24T12:49:55.097Z,88.40
2018-12-24T12:52:23.599Z,89.30
2018-12-24T12:54:52.105Z,90.20
2018-12-24T12:57:20.604Z,88.00
2018-12-24T12:59:49.105Z,90.10
2018-12-24T13:02:18.973Z,87.40
2018-12-24T13:04:47.786Z,87.00
2018-12-24T13:07:16.277Z,88.40
2018-12-24T13:09:44.793Z,87.70
2018-12-24T13:12:13.259Z,88.00
2018-12-24T13:14:41.762Z,90.40
2018-12-24T13:17:10.350Z,91.50
2018-12-24T13:19:38.837Z,93.60
2018-12-24T13:22:07.326Z,91.20
2018-12-24T13:24:35.932Z,91.10
2018-12-24T13:27:04.405Z,91.60
2018-12-24T13:29:32.993Z,91.00
2018-12-24T13:32:01.462Z,91.20
2018-12-24T13:34:29.956Z,92.10
2018-12-24T13:36:58.430Z,92.10
2018-12-24T13:39:28.395Z,91.30
2018-12-24T13:41:56.887Z,91.10
2018-12-24T13:44:25.413Z,90.80
2018-12-24T13:46:53.890Z,90.80
2018-12-24T13:51:10.341Z,91.50
2018-12-24T13:53:42.010Z,91.80
2018-12-24T13:56:08.740Z,92.50
2018-12-24T13:58:37.104Z,93.00
2018-12-24T14:01:05.612Z,92.20
2018-12-24T14:03:34.026Z,91.40
2018-12-24T14:06:02.421Z,92.40
2018-12-24T14:08:30.784Z,92.80
2018-12-24T14:10:59.186Z,93.60
2018-12-24T14:13:27.553Z,93.80
2018-12-24T14:15:55.957Z,95.20
